sensor_id;sensor_type;location;lat;lon;timestamp;P1;durP1;ratioP1;P2;durP2;ratioP2
84877;SDS011;75140;47.754;8.840;2024-03-22T00:00:00;5.47;;;3.23;;
84877;SDS011;75140;47.754;8.840;2024-03-22T00:02:25;5.18;;;2.80;;
84877;SDS011;75140;47.754;8.840;2024-03-22T00:04:51;6.87;;;3.87;;
84877;SDS011;75140;47.754;8.840;2024-03-22T00:07:16;4.85;;;3.50;;
84877;SDS011;75140;47.754;8.840;2024-03-22T00:09:41;4.63;;;4.17;;
84877;SDS011;75140;47.754;8.840;2024-03-22T00:12:07;6.17;;;3.53;;
84877;SDS011;75140;47.754;8.840;2024-03-22T00:14:32;5.63;;;3.75;;
84877;SDS011;75140;47.754;8.840;2024-03-22T00:16:58;6.40;;;4.83;;
84877;SDS011;75140;47.754;8.840;2024-03-22T00:19:23;10.07;;;5.00;;
84877;SDS011;75140;47.754;8.840;2024-03-22T00:21:48;5.07;;;3.85;;
84877;SDS011;75140;47.754;8.840;2024-03-22T00:24:14;6.17;;;4.20;;
84877;SDS011;75140;47.754;8.840;2024-03-22T00:26:39;4.90;;;4.20;;
84877;SDS011;75140;47.754;8.840;2024-03-22T00:29:04;10.33;;;4.40;;
84877;SDS011;75140;47.754;8.840;2024-03-22T00:31:30;5.80;;;4.10;;
84877;SDS011;75140;47.754;8.840;2024-03-22T00:33:55;4.67;;;4.20;;
84877;SDS011;75140;47.754;8.840;2024-03-22T00:36:20;6.15;;;4.28;;
84877;SDS011;75140;47.754;8.840;2024-03-22T00:38:46;5.20;;;4.10;;
84877;SDS011;75140;47.754;8.840;2024-03-22T00:41:12;6.60;;;4.57;;
84877;SDS011;75140;47.754;8.840;2024-03-22T00:43:37;9.88;;;5.05;;
84877;SDS011;75140;47.754;8.840;2024-03-22T00:46:03;8.73;;;4.17;;
84877;SDS011;75140;47.754;8.840;2024-03-22T00:48:28;7.47;;;4.13;;
84877;SDS011;75140;47.754;8.840;2024-03-22T00:50:54;11.75;;;6.47;;
84877;SDS011;75140;47.754;8.840;2024-03-22T00:53:19;6.53;;;4.90;;
84877;SDS011;75140;47.754;8.840;2024-03-22T00:55:45;7.33;;;5.53;;
84877;SDS011;75140;47.754;8.840;2024-03-22T00:58:15;6.47;;;4.75;;
84877;SDS011;75140;47.754;8.840;2024-03-22T01:00:41;7.93;;;5.28;;
84877;SDS011;75140;47.754;8.840;2024-03-22T01:03:06;7.70;;;5.23;;
84877;SDS011;75140;47.754;8.840;2024-03-22T01:05:31;10.30;;;5.57;;
84877;SDS011;75140;47.754;8.840;2024-03-22T01:07:57;6.43;;;5.07;;
84877;SDS011;75140;47.754;8.840;2024-03-22T01:10:22;7.13;;;5.13;;
84877;SDS011;75140;47.754;8.840;2024-03-22T01:12:47;7.03;;;4.67;;
84877;SDS011;75140;47.754;8.840;2024-03-22T01:15:13;7.43;;;5.10;;
84877;SDS011;75140;47.754;8.840;2024-03-22T01:17:38;8.70;;;5.40;;
84877;SDS011;75140;47.754;8.840;2024-03-22T01:20:04;6.70;;;5.55;;
84877;SDS011;75140;47.754;8.840;2024-03-22T01:22:29;8.45;;;4.97;;
84877;SDS011;75140;47.754;8.840;2024-03-22T01:24:55;7.45;;;4.35;;
84877;SDS011;75140;47.754;8.840;2024-03-22T01:27:20;9.27;;;6.57;;
84877;SDS011;75140;47.754;8.840;2024-03-22T01:29:46;9.23;;;5.50;;
84877;SDS011;75140;47.754;8.840;2024-03-22T01:32:12;7.97;;;5.22;;
84877;SDS011;75140;47.754;8.840;2024-03-22T01:34:37;7.15;;;4.97;;
84877;SDS011;75140;47.754;8.840;2024-03-22T01:37:03;6.03;;;5.30;;
84877;SDS011;75140;47.754;8.840;2024-03-22T01:39:28;7.03;;;4.53;;
84877;SDS011;75140;47.754;8.840;2024-03-22T01:41:54;9.05;;;5.35;;
84877;SDS011;75140;47.754;8.840;2024-03-22T01:44:26;8.77;;;5.22;;
84877;SDS011;75140;47.754;8.840;2024-03-22T01:46:52;7.82;;;4.90;;
84877;SDS011;75140;47.754;8.840;2024-03-22T01:49:17;8.35;;;5.03;;
84877;SDS011;75140;47.754;8.840;2024-03-22T01:51:43;8.13;;;5.85;;
84877;SDS011;75140;47.754;8.840;2024-03-22T01:54:09;5.90;;;4.78;;
84877;SDS011;75140;47.754;8.840;2024-03-22T01:56:38;7.93;;;5.22;;
84877;SDS011;75140;47.754;8.840;2024-03-22T01:59:04;10.60;;;5.70;;
84877;SDS011;75140;47.754;8.840;2024-03-22T02:01:31;9.63;;;5.57;;
84877;SDS011;75140;47.754;8.840;2024-03-22T02:03:57;6.18;;;5.00;;
84877;SDS011;75140;47.754;8.840;2024-03-22T02:06:22;7.80;;;5.17;;
84877;SDS011;75140;47.754;8.840;2024-03-22T02:08:47;7.87;;;5.00;;
84877;SDS011;75140;47.754;8.840;2024-03-22T02:11:13;6.67;;;5.20;;
84877;SDS011;75140;47.754;8.840;2024-03-22T02:13:38;10.80;;;6.05;;
84877;SDS011;75140;47.754;8.840;2024-03-22T02:16:04;9.10;;;5.50;;
84877;SDS011;75140;47.754;8.840;2024-03-22T02:18:30;8.23;;;5.78;;
84877;SDS011;75140;47.754;8.840;2024-03-22T02:20:58;6.00;;;5.03;;
84877;SDS011;75140;47.754;8.840;2024-03-22T02:23:32;10.70;;;5.70;;
84877;SDS011;75140;47.754;8.840;2024-03-22T02:25:59;7.72;;;5.50;;
84877;SDS011;75140;47.754;8.840;2024-03-22T02:28:24;10.95;;;6.93;;
84877;SDS011;75140;47.754;8.840;2024-03-22T02:30:50;9.13;;;6.20;;
84877;SDS011;75140;47.754;8.840;2024-03-22T02:33:15;8.37;;;4.97;;
84877;SDS011;75140;47.754;8.840;2024-03-22T02:35:40;6.83;;;5.03;;
84877;SDS011;75140;47.754;8.840;2024-03-22T02:38:06;6.63;;;5.43;;
84877;SDS011;75140;47.754;8.840;2024-03-22T02:40:31;9.57;;;6.00;;
84877;SDS011;75140;47.754;8.840;2024-03-22T02:42:56;8.73;;;6.30;;
84877;SDS011;75140;47.754;8.840;2024-03-22T02:45:22;11.77;;;5.95;;
84877;SDS011;75140;47.754;8.840;2024-03-22T02:47:47;9.30;;;6.63;;
84877;SDS011;75140;47.754;8.840;2024-03-22T02:50:12;10.17;;;7.03;;
84877;SDS011;75140;47.754;8.840;2024-03-22T02:52:38;7.90;;;6.40;;
84877;SDS011;75140;47.754;8.840;2024-03-22T02:55:03;11.20;;;7.03;;
84877;SDS011;75140;47.754;8.840;2024-03-22T02:57:29;13.48;;;6.25;;
84877;SDS011;75140;47.754;8.840;2024-03-22T02:59:54;8.73;;;5.37;;
84877;SDS011;75140;47.754;8.840;2024-03-22T03:02:19;9.00;;;6.07;;
84877;SDS011;75140;47.754;8.840;2024-03-22T03:04:45;12.43;;;6.53;;
84877;SDS011;75140;47.754;8.840;2024-03-22T03:07:10;10.80;;;5.63;;
84877;SDS011;75140;47.754;8.840;2024-03-22T03:09:35;8.63;;;6.15;;
84877;SDS011;75140;47.754;8.840;2024-03-22T03:12:01;9.97;;;6.07;;
84877;SDS011;75140;47.754;8.840;2024-03-22T03:14:26;8.30;;;6.18;;
84877;SDS011;75140;47.754;8.840;2024-03-22T03:16:51;9.43;;;5.73;;
84877;SDS011;75140;47.754;8.840;2024-03-22T03:19:17;11.47;;;6.90;;
84877;SDS011;75140;47.754;8.840;2024-03-22T03:21:42;11.63;;;6.67;;
84877;SDS011;75140;47.754;8.840;2024-03-22T03:24:07;10.20;;;7.00;;
84877;SDS011;75140;47.754;8.840;2024-03-22T03:26:34;8.93;;;6.70;;
84877;SDS011;75140;47.754;8.840;2024-03-22T03:28:59;10.20;;;6.40;;
84877;SDS011;75140;47.754;8.840;2024-03-22T03:31:25;11.63;;;7.33;;
84877;SDS011;75140;47.754;8.840;2024-03-22T03:33:50;11.93;;;7.25;;
84877;SDS011;75140;47.754;8.840;2024-03-22T03:36:15;14.03;;;6.80;;
84877;SDS011;75140;47.754;8.840;2024-03-22T03:38:41;12.77;;;6.90;;
84877;SDS011;75140;47.754;8.840;2024-03-22T03:41:06;8.17;;;6.50;;
84877;SDS011;75140;47.754;8.840;2024-03-22T03:43:32;10.20;;;6.95;;
84877;SDS011;75140;47.754;8.840;2024-03-22T03:45:57;9.13;;;6.67;;
84877;SDS011;75140;47.754;8.840;2024-03-22T03:48:22;11.93;;;6.70;;
84877;SDS011;75140;47.754;8.840;2024-03-22T03:50:54;13.27;;;6.70;;
84877;SDS011;75140;47.754;8.840;2024-03-22T03:53:20;11.52;;;6.60;;
84877;SDS011;75140;47.754;8.840;2024-03-22T03:55:46;8.90;;;6.10;;
84877;SDS011;75140;47.754;8.840;2024-03-22T03:58:11;9.67;;;6.37;;
84877;SDS011;75140;47.754;8.840;2024-03-22T04:00:37;7.87;;;5.53;;
84877;SDS011;75140;47.754;8.840;2024-03-22T04:03:02;10.13;;;6.30;;
84877;SDS011;75140;47.754;8.840;2024-03-22T04:05:28;9.90;;;6.13;;
84877;SDS011;75140;47.754;8.840;2024-03-22T04:07:53;12.80;;;6.28;;
84877;SDS011;75140;47.754;8.840;2024-03-22T04:10:19;10.13;;;6.97;;
84877;SDS011;75140;47.754;8.840;2024-03-22T04:12:44;9.07;;;6.30;;
84877;SDS011;75140;47.754;8.840;2024-03-22T04:15:10;9.98;;;6.57;;
84877;SDS011;75140;47.754;8.840;2024-03-22T04:17:35;10.00;;;7.13;;
84877;SDS011;75140;47.754;8.840;2024-03-22T04:20:01;11.40;;;6.97;;
84877;SDS011;75140;47.754;8.840;2024-03-22T04:22:28;14.02;;;7.40;;
84877;SDS011;75140;47.754;8.840;2024-03-22T04:24:54;8.60;;;6.00;;
84877;SDS011;75140;47.754;8.840;2024-03-22T04:27:19;11.83;;;7.20;;
84877;SDS011;75140;47.754;8.840;2024-03-22T04:29:47;10.00;;;7.00;;
84877;SDS011;75140;47.754;8.840;2024-03-22T04:32:12;11.68;;;6.63;;
84877;SDS011;75140;47.754;8.840;2024-03-22T04:34:41;9.77;;;6.63;;
84877;SDS011;75140;47.754;8.840;2024-03-22T04:37:07;7.82;;;5.32;;
84877;SDS011;75140;47.754;8.840;2024-03-22T04:39:32;10.63;;;6.53;;
84877;SDS011;75140;47.754;8.840;2024-03-22T04:41:58;8.30;;;6.03;;
84877;SDS011;75140;47.754;8.840;2024-03-22T04:44:23;8.23;;;6.17;;
84877;SDS011;75140;47.754;8.840;2024-03-22T04:46:50;8.45;;;6.72;;
84877;SDS011;75140;47.754;8.840;2024-03-22T04:49:15;9.52;;;6.05;;
84877;SDS011;75140;47.754;8.840;2024-03-22T04:51:40;9.57;;;6.30;;
84877;SDS011;75140;47.754;8.840;2024-03-22T04:54:06;11.50;;;7.77;;
84877;SDS011;75140;47.754;8.840;2024-03-22T04:56:31;10.13;;;7.00;;
84877;SDS011;75140;47.754;8.840;2024-03-22T04:58:57;12.23;;;6.93;;
84877;SDS011;75140;47.754;8.840;2024-03-22T05:01:22;10.73;;;7.10;;
84877;SDS011;75140;47.754;8.840;2024-03-22T05:03:48;11.95;;;8.52;;
84877;SDS011;75140;47.754;8.840;2024-03-22T05:06:14;8.25;;;6.63;;
84877;SDS011;75140;47.754;8.840;2024-03-22T05:08:40;9.60;;;6.53;;
84877;SDS011;75140;47.754;8.840;2024-03-22T05:11:06;10.52;;;7.40;;
84877;SDS011;75140;47.754;8.840;2024-03-22T05:13:32;10.02;;;6.53;;
84877;SDS011;75140;47.754;8.840;2024-03-22T05:15:57;10.55;;;7.50;;
84877;SDS011;75140;47.754;8.840;2024-03-22T05:18:23;8.98;;;6.85;;
84877;SDS011;75140;47.754;8.840;2024-03-22T05:20:48;9.83;;;6.63;;
84877;SDS011;75140;47.754;8.840;2024-03-22T05:23:13;10.67;;;7.10;;
84877;SDS011;75140;47.754;8.840;2024-03-22T05:25:41;10.63;;;7.05;;
84877;SDS011;75140;47.754;8.840;2024-03-22T05:28:09;9.85;;;6.35;;
84877;SDS011;75140;47.754;8.840;2024-03-22T05:30:34;11.82;;;6.65;;
84877;SDS011;75140;47.754;8.840;2024-03-22T05:33:00;8.40;;;5.50;;
84877;SDS011;75140;47.754;8.840;2024-03-22T05:35:27;10.27;;;6.22;;
84877;SDS011;75140;47.754;8.840;2024-03-22T05:37:52;11.57;;;6.70;;
84877;SDS011;75140;47.754;8.840;2024-03-22T05:40:17;11.27;;;5.70;;
84877;SDS011;75140;47.754;8.840;2024-03-22T05:42:43;10.80;;;6.30;;
84877;SDS011;75140;47.754;8.840;2024-03-22T05:45:08;12.75;;;6.15;;
84877;SDS011;75140;47.754;8.840;2024-03-22T05:47:34;9.88;;;6.55;;
84877;SDS011;75140;47.754;8.840;2024-03-22T05:49:59;12.23;;;7.07;;
84877;SDS011;75140;47.754;8.840;2024-03-22T05:52:26;15.00;;;7.15;;
84877;SDS011;75140;47.754;8.840;2024-03-22T05:54:51;9.63;;;6.22;;
84877;SDS011;75140;47.754;8.840;2024-03-22T05:57:17;9.33;;;6.07;;
84877;SDS011;75140;47.754;8.840;2024-03-22T05:59:42;9.88;;;6.85;;
84877;SDS011;75140;47.754;8.840;2024-03-22T06:02:07;7.30;;;5.88;;
84877;SDS011;75140;47.754;8.840;2024-03-22T06:04:33;9.70;;;6.30;;
84877;SDS011;75140;47.754;8.840;2024-03-22T06:06:59;12.23;;;6.40;;
84877;SDS011;75140;47.754;8.840;2024-03-22T06:09:28;8.85;;;6.85;;
84877;SDS011;75140;47.754;8.840;2024-03-22T06:12:02;12.75;;;7.03;;
84877;SDS011;75140;47.754;8.840;2024-03-22T06:14:30;13.73;;;7.15;;
84877;SDS011;75140;47.754;8.840;2024-03-22T06:16:55;8.63;;;6.57;;
84877;SDS011;75140;47.754;8.840;2024-03-22T06:19:21;10.27;;;6.77;;
84877;SDS011;75140;47.754;8.840;2024-03-22T06:21:46;10.80;;;6.77;;
84877;SDS011;75140;47.754;8.840;2024-03-22T06:24:12;9.32;;;6.93;;
84877;SDS011;75140;47.754;8.840;2024-03-22T06:26:37;10.47;;;7.27;;
84877;SDS011;75140;47.754;8.840;2024-03-22T06:29:02;13.37;;;7.30;;
84877;SDS011;75140;47.754;8.840;2024-03-22T06:31:28;11.90;;;6.83;;
84877;SDS011;75140;47.754;8.840;2024-03-22T06:33:53;9.63;;;6.50;;
84877;SDS011;75140;47.754;8.840;2024-03-22T06:36:19;13.90;;;6.47;;
84877;SDS011;75140;47.754;8.840;2024-03-22T06:38:44;10.17;;;6.13;;
84877;SDS011;75140;47.754;8.840;2024-03-22T06:41:10;10.93;;;7.22;;
84877;SDS011;75140;47.754;8.840;2024-03-22T06:43:35;9.23;;;6.07;;
84877;SDS011;75140;47.754;8.840;2024-03-22T06:46:00;9.30;;;6.40;;
84877;SDS011;75140;47.754;8.840;2024-03-22T06:48:26;11.90;;;7.23;;
84877;SDS011;75140;47.754;8.840;2024-03-22T06:50:51;11.40;;;6.90;;
84877;SDS011;75140;47.754;8.840;2024-03-22T06:53:16;8.83;;;6.63;;
84877;SDS011;75140;47.754;8.840;2024-03-22T06:55:42;11.93;;;6.43;;
84877;SDS011;75140;47.754;8.840;2024-03-22T06:58:07;8.85;;;6.07;;
84877;SDS011;75140;47.754;8.840;2024-03-22T07:00:32;12.47;;;6.30;;
84877;SDS011;75140;47.754;8.840;2024-03-22T07:03:01;9.82;;;6.38;;
84877;SDS011;75140;47.754;8.840;2024-03-22T07:05:28;10.68;;;6.65;;
84877;SDS011;75140;47.754;8.840;2024-03-22T07:07:53;11.88;;;6.13;;
84877;SDS011;75140;47.754;8.840;2024-03-22T07:10:21;10.77;;;6.00;;
84877;SDS011;75140;47.754;8.840;2024-03-22T07:12:48;11.13;;;6.82;;
84877;SDS011;75140;47.754;8.840;2024-03-22T07:15:13;12.63;;;6.90;;
84877;SDS011;75140;47.754;8.840;2024-03-22T07:17:38;11.83;;;6.83;;
84877;SDS011;75140;47.754;8.840;2024-03-22T07:20:04;8.13;;;5.68;;
84877;SDS011;75140;47.754;8.840;2024-03-22T07:22:31;13.25;;;7.38;;
84877;SDS011;75140;47.754;8.840;2024-03-22T07:24:56;9.03;;;5.73;;
84877;SDS011;75140;47.754;8.840;2024-03-22T07:27:22;10.70;;;7.20;;
84877;SDS011;75140;47.754;8.840;2024-03-22T07:29:47;7.50;;;5.17;;
84877;SDS011;75140;47.754;8.840;2024-03-22T07:32:12;10.07;;;7.10;;
84877;SDS011;75140;47.754;8.840;2024-03-22T07:34:38;9.18;;;6.63;;
84877;SDS011;75140;47.754;8.840;2024-03-22T07:37:04;12.03;;;7.47;;
84877;SDS011;75140;47.754;8.840;2024-03-22T07:39:29;12.67;;;6.70;;
84877;SDS011;75140;47.754;8.840;2024-03-22T07:41:55;10.32;;;6.40;;
84877;SDS011;75140;47.754;8.840;2024-03-22T07:44:20;9.17;;;6.23;;
84877;SDS011;75140;47.754;8.840;2024-03-22T07:46:45;10.35;;;6.63;;
84877;SDS011;75140;47.754;8.840;2024-03-22T07:49:14;7.78;;;4.93;;
84877;SDS011;75140;47.754;8.840;2024-03-22T07:51:39;13.98;;;5.75;;
84877;SDS011;75140;47.754;8.840;2024-03-22T07:54:05;10.23;;;5.67;;
84877;SDS011;75140;47.754;8.840;2024-03-22T07:56:30;9.35;;;5.70;;
84877;SDS011;75140;47.754;8.840;2024-03-22T07:58:56;8.50;;;4.72;;
84877;SDS011;75140;47.754;8.840;2024-03-22T08:01:22;7.30;;;4.50;;
84877;SDS011;75140;47.754;8.840;2024-03-22T08:03:47;8.65;;;4.55;;
84877;SDS011;75140;47.754;8.840;2024-03-22T08:06:14;5.90;;;4.63;;
84877;SDS011;75140;47.754;8.840;2024-03-22T08:08:39;7.40;;;5.13;;
84877;SDS011;75140;47.754;8.840;2024-03-22T08:11:04;4.23;;;3.73;;
84877;SDS011;75140;47.754;8.840;2024-03-22T08:13:30;8.07;;;4.40;;
84877;SDS011;75140;47.754;8.840;2024-03-22T08:15:55;6.90;;;4.82;;
84877;SDS011;75140;47.754;8.840;2024-03-22T08:18:21;8.00;;;4.27;;
84877;SDS011;75140;47.754;8.840;2024-03-22T08:20:46;8.02;;;5.28;;
84877;SDS011;75140;47.754;8.840;2024-03-22T08:23:11;8.23;;;5.20;;
84877;SDS011;75140;47.754;8.840;2024-03-22T08:25:37;10.83;;;5.13;;
84877;SDS011;75140;47.754;8.840;2024-03-22T08:28:03;6.82;;;5.28;;
84877;SDS011;75140;47.754;8.840;2024-03-22T08:30:29;7.57;;;4.97;;
84877;SDS011;75140;47.754;8.840;2024-03-22T08:32:54;8.88;;;4.90;;
84877;SDS011;75140;47.754;8.840;2024-03-22T08:35:20;8.80;;;4.87;;
84877;SDS011;75140;47.754;8.840;2024-03-22T08:37:45;10.00;;;6.05;;
84877;SDS011;75140;47.754;8.840;2024-03-22T08:40:11;6.00;;;3.90;;
84877;SDS011;75140;47.754;8.840;2024-03-22T08:42:37;7.78;;;4.25;;
84877;SDS011;75140;47.754;8.840;2024-03-22T08:45:02;5.27;;;3.93;;
84877;SDS011;75140;47.754;8.840;2024-03-22T08:47:29;7.22;;;3.80;;
84877;SDS011;75140;47.754;8.840;2024-03-22T08:49:55;6.15;;;3.60;;
84877;SDS011;75140;47.754;8.840;2024-03-22T08:52:21;4.70;;;3.33;;
84877;SDS011;75140;47.754;8.840;2024-03-22T08:54:48;4.93;;;3.70;;
84877;SDS011;75140;47.754;8.840;2024-03-22T08:57:14;3.63;;;3.00;;
84877;SDS011;75140;47.754;8.840;2024-03-22T08:59:39;7.33;;;3.43;;
84877;SDS011;75140;47.754;8.840;2024-03-22T09:02:05;4.70;;;3.35;;
84877;SDS011;75140;47.754;8.840;2024-03-22T09:04:31;7.93;;;3.47;;
84877;SDS011;75140;47.754;8.840;2024-03-22T09:06:56;4.47;;;3.35;;
84877;SDS011;75140;47.754;8.840;2024-03-22T09:09:23;4.15;;;2.95;;
84877;SDS011;75140;47.754;8.840;2024-03-22T09:11:48;3.92;;;3.00;;
84877;SDS011;75140;47.754;8.840;2024-03-22T09:14:14;4.07;;;2.30;;
84877;SDS011;75140;47.754;8.840;2024-03-22T09:16:39;3.87;;;2.63;;
84877;SDS011;75140;47.754;8.840;2024-03-22T09:19:05;9.13;;;2.45;;
84877;SDS011;75140;47.754;8.840;2024-03-22T09:21:31;3.85;;;2.15;;
84877;SDS011;75140;47.754;8.840;2024-03-22T09:23:57;6.75;;;2.60;;
84877;SDS011;75140;47.754;8.840;2024-03-22T09:26:22;4.05;;;2.40;;
84877;SDS011;75140;47.754;8.840;2024-03-22T09:28:48;3.80;;;2.10;;
84877;SDS011;75140;47.754;8.840;2024-03-22T09:31:15;2.63;;;2.33;;
84877;SDS011;75140;47.754;8.840;2024-03-22T09:33:41;2.97;;;2.20;;
84877;SDS011;75140;47.754;8.840;2024-03-22T09:36:07;6.05;;;2.53;;
84877;SDS011;75140;47.754;8.840;2024-03-22T09:38:33;2.92;;;2.33;;
84877;SDS011;75140;47.754;8.840;2024-03-22T09:40:58;4.72;;;2.40;;
84877;SDS011;75140;47.754;8.840;2024-03-22T09:43:23;3.17;;;1.90;;
84877;SDS011;75140;47.754;8.840;2024-03-22T09:45:55;5.60;;;2.50;;
84877;SDS011;75140;47.754;8.840;2024-03-22T09:48:21;4.30;;;2.53;;
84877;SDS011;75140;47.754;8.840;2024-03-22T09:50:48;3.70;;;2.17;;
84877;SDS011;75140;47.754;8.840;2024-03-22T09:53:17;5.10;;;2.72;;
84877;SDS011;75140;47.754;8.840;2024-03-22T09:58:10;3.83;;;1.90;;
84877;SDS011;75140;47.754;8.840;2024-03-22T10:00:35;3.85;;;2.60;;
84877;SDS011;75140;47.754;8.840;2024-03-22T10:03:01;5.30;;;3.13;;
84877;SDS011;75140;47.754;8.840;2024-03-22T10:05:28;4.68;;;2.53;;
84877;SDS011;75140;47.754;8.840;2024-03-22T10:07:54;4.28;;;1.75;;
84877;SDS011;75140;47.754;8.840;2024-03-22T10:10:20;3.42;;;2.20;;
84877;SDS011;75140;47.754;8.840;2024-03-22T10:12:46;3.72;;;2.40;;
84877;SDS011;75140;47.754;8.840;2024-03-22T10:15:11;18.20;;;3.65;;
84877;SDS011;75140;47.754;8.840;2024-03-22T10:17:38;2.95;;;2.10;;
84877;SDS011;75140;47.754;8.840;2024-03-22T10:20:04;2.67;;;2.03;;
84877;SDS011;75140;47.754;8.840;2024-03-22T10:22:34;5.07;;;2.60;;
84877;SDS011;75140;47.754;8.840;2024-03-22T10:25:00;3.70;;;2.20;;
84877;SDS011;75140;47.754;8.840;2024-03-22T10:27:26;3.33;;;2.80;;
84877;SDS011;75140;47.754;8.840;2024-03-22T10:29:54;4.22;;;2.40;;
84877;SDS011;75140;47.754;8.840;2024-03-22T10:32:19;2.63;;;2.40;;
84877;SDS011;75140;47.754;8.840;2024-03-22T10:34:45;3.20;;;1.95;;
84877;SDS011;75140;47.754;8.840;2024-03-22T10:37:12;2.90;;;2.20;;
84877;SDS011;75140;47.754;8.840;2024-03-22T10:39:40;7.82;;;2.60;;
84877;SDS011;75140;47.754;8.840;2024-03-22T10:42:07;5.35;;;1.83;;
84877;SDS011;75140;47.754;8.840;2024-03-22T10:44:33;4.88;;;1.80;;
84877;SDS011;75140;47.754;8.840;2024-03-22T10:46:58;4.00;;;1.92;;
84877;SDS011;75140;47.754;8.840;2024-03-22T10:49:26;5.20;;;2.83;;
84877;SDS011;75140;47.754;8.840;2024-03-22T10:51:56;3.10;;;1.92;;
84877;SDS011;75140;47.754;8.840;2024-03-22T10:54:26;3.17;;;1.65;;
84877;SDS011;75140;47.754;8.840;2024-03-22T10:56:56;6.18;;;2.03;;
84877;SDS011;75140;47.754;8.840;2024-03-22T10:59:22;4.18;;;2.08;;
84877;SDS011;75140;47.754;8.840;2024-03-22T11:01:48;5.83;;;2.30;;
84877;SDS011;75140;47.754;8.840;2024-03-22T11:04:19;4.78;;;2.30;;
84877;SDS011;75140;47.754;8.840;2024-03-22T11:06:48;2.92;;;1.83;;
84877;SDS011;75140;47.754;8.840;2024-03-22T11:09:22;3.25;;;2.22;;
84877;SDS011;75140;47.754;8.840;2024-03-22T11:11:48;3.03;;;2.30;;
84877;SDS011;75140;47.754;8.840;2024-03-22T11:14:13;4.82;;;1.80;;
84877;SDS011;75140;47.754;8.840;2024-03-22T11:16:42;3.25;;;2.30;;
84877;SDS011;75140;47.754;8.840;2024-03-22T11:21:34;5.40;;;2.00;;
84877;SDS011;75140;47.754;8.840;2024-03-22T11:24:02;2.87;;;2.00;;
84877;SDS011;75140;47.754;8.840;2024-03-22T11:26:28;4.10;;;1.92;;
84877;SDS011;75140;47.754;8.840;2024-03-22T11:28:54;3.67;;;2.00;;
84877;SDS011;75140;47.754;8.840;2024-03-22T11:31:19;3.70;;;2.03;;
84877;SDS011;75140;47.754;8.840;2024-03-22T11:33:46;2.83;;;1.73;;
84877;SDS011;75140;47.754;8.840;2024-03-22T11:36:12;4.25;;;2.30;;
84877;SDS011;75140;47.754;8.840;2024-03-22T11:38:38;2.05;;;1.70;;
84877;SDS011;75140;47.754;8.840;2024-03-22T11:41:04;3.72;;;2.38;;
84877;SDS011;75140;47.754;8.840;2024-03-22T11:43:30;2.60;;;1.80;;
84877;SDS011;75140;47.754;8.840;2024-03-22T11:45:56;5.47;;;2.30;;
84877;SDS011;75140;47.754;8.840;2024-03-22T11:48:21;3.90;;;2.30;;
84877;SDS011;75140;47.754;8.840;2024-03-22T11:50:47;3.13;;;1.63;;
84877;SDS011;75140;47.754;8.840;2024-03-22T11:53:13;2.80;;;1.70;;
84877;SDS011;75140;47.754;8.840;2024-03-22T11:55:41;2.80;;;1.85;;
84877;SDS011;75140;47.754;8.840;2024-03-22T11:58:08;5.13;;;2.20;;
84877;SDS011;75140;47.754;8.840;2024-03-22T12:00:35;3.95;;;1.88;;
84877;SDS011;75140;47.754;8.840;2024-03-22T12:03:01;4.35;;;1.80;;
84877;SDS011;75140;47.754;8.840;2024-03-22T12:05:30;2.40;;;1.75;;
84877;SDS011;75140;47.754;8.840;2024-03-22T12:07:56;4.13;;;1.67;;
84877;SDS011;75140;47.754;8.840;2024-03-22T12:10:21;2.97;;;1.80;;
84877;SDS011;75140;47.754;8.840;2024-03-22T12:12:47;3.05;;;1.60;;
84877;SDS011;75140;47.754;8.840;2024-03-22T12:15:12;1.80;;;1.30;;
84877;SDS011;75140;47.754;8.840;2024-03-22T12:17:38;2.07;;;1.87;;
84877;SDS011;75140;47.754;8.840;2024-03-22T12:20:05;1.92;;;1.23;;
84877;SDS011;75140;47.754;8.840;2024-03-22T12:22:33;2.20;;;1.25;;
84877;SDS011;75140;47.754;8.840;2024-03-22T12:24:59;2.28;;;1.25;;
84877;SDS011;75140;47.754;8.840;2024-03-22T12:27:24;3.22;;;1.13;;
84877;SDS011;75140;47.754;8.840;2024-03-22T12:29:50;3.13;;;1.65;;
84877;SDS011;75140;47.754;8.840;2024-03-22T12:32:15;1.83;;;1.27;;
84877;SDS011;75140;47.754;8.840;2024-03-22T12:34:41;1.73;;;1.47;;
84877;SDS011;75140;47.754;8.840;2024-03-22T12:37:06;2.70;;;1.40;;
84877;SDS011;75140;47.754;8.840;2024-03-22T12:39:32;4.53;;;1.60;;
84877;SDS011;75140;47.754;8.840;2024-03-22T12:41:57;1.80;;;1.17;;
84877;SDS011;75140;47.754;8.840;2024-03-22T12:44:23;3.42;;;1.20;;
84877;SDS011;75140;47.754;8.840;2024-03-22T12:46:48;3.17;;;1.52;;
84877;SDS011;75140;47.754;8.840;2024-03-22T12:49:16;2.33;;;1.20;;
84877;SDS011;75140;47.754;8.840;2024-03-22T12:51:41;2.15;;;1.52;;
84877;SDS011;75140;47.754;8.840;2024-03-22T12:54:07;1.67;;;1.17;;
84877;SDS011;75140;47.754;8.840;2024-03-22T12:56:32;2.45;;;1.52;;
84877;SDS011;75140;47.754;8.840;2024-03-22T12:58:58;3.50;;;1.42;;
84877;SDS011;75140;47.754;8.840;2024-03-22T13:01:24;2.10;;;1.13;;
84877;SDS011;75140;47.754;8.840;2024-03-22T13:03:50;2.08;;;1.25;;
84877;SDS011;75140;47.754;8.840;2024-03-22T13:06:15;1.80;;;1.13;;
84877;SDS011;75140;47.754;8.840;2024-03-22T13:08:40;1.97;;;0.90;;
84877;SDS011;75140;47.754;8.840;2024-03-22T13:11:06;1.83;;;1.25;;
84877;SDS011;75140;47.754;8.840;2024-03-22T13:13:34;3.00;;;1.10;;
84877;SDS011;75140;47.754;8.840;2024-03-22T13:16:00;2.03;;;0.85;;
84877;SDS011;75140;47.754;8.840;2024-03-22T13:18:27;2.40;;;1.25;;
84877;SDS011;75140;47.754;8.840;2024-03-22T13:20:53;2.08;;;1.00;;
84877;SDS011;75140;47.754;8.840;2024-03-22T13:23:19;1.50;;;1.00;;
84877;SDS011;75140;47.754;8.840;2024-03-22T13:25:44;2.42;;;1.40;;
84877;SDS011;75140;47.754;8.840;2024-03-22T13:28:10;1.87;;;1.10;;
84877;SDS011;75140;47.754;8.840;2024-03-22T13:30:35;4.27;;;1.10;;
84877;SDS011;75140;47.754;8.840;2024-03-22T13:33:02;1.95;;;1.25;;
84877;SDS011;75140;47.754;8.840;2024-03-22T13:35:28;1.50;;;1.05;;
84877;SDS011;75140;47.754;8.840;2024-03-22T13:37:53;1.35;;;0.93;;
84877;SDS011;75140;47.754;8.840;2024-03-22T13:40:19;1.17;;;0.83;;
84877;SDS011;75140;47.754;8.840;2024-03-22T13:42:44;1.88;;;1.10;;
84877;SDS011;75140;47.754;8.840;2024-03-22T13:45:10;2.37;;;0.77;;
84877;SDS011;75140;47.754;8.840;2024-03-22T13:47:35;1.73;;;0.90;;
84877;SDS011;75140;47.754;8.840;2024-03-22T13:50:03;2.35;;;0.63;;
84877;SDS011;75140;47.754;8.840;2024-03-22T13:52:29;2.38;;;0.75;;
84877;SDS011;75140;47.754;8.840;2024-03-22T13:54:55;1.23;;;0.98;;
84877;SDS011;75140;47.754;8.840;2024-03-22T13:57:20;1.13;;;0.87;;
84877;SDS011;75140;47.754;8.840;2024-03-22T13:59:45;2.07;;;1.20;;
84877;SDS011;75140;47.754;8.840;2024-03-22T14:02:12;1.80;;;1.00;;
84877;SDS011;75140;47.754;8.840;2024-03-22T14:04:37;2.95;;;1.10;;
84877;SDS011;75140;47.754;8.840;2024-03-22T14:07:02;2.07;;;0.90;;
84877;SDS011;75140;47.754;8.840;2024-03-22T14:09:30;2.10;;;1.25;;
84877;SDS011;75140;47.754;8.840;2024-03-22T14:11:56;1.50;;;0.85;;
84877;SDS011;75140;47.754;8.840;2024-03-22T14:14:21;1.20;;;0.67;;
84877;SDS011;75140;47.754;8.840;2024-03-22T14:16:47;2.43;;;0.80;;
84877;SDS011;75140;47.754;8.840;2024-03-22T14:19:12;3.87;;;0.90;;
84877;SDS011;75140;47.754;8.840;2024-03-22T14:21:37;1.20;;;0.65;;
84877;SDS011;75140;47.754;8.840;2024-03-22T14:24:06;4.70;;;0.75;;
84877;SDS011;75140;47.754;8.840;2024-03-22T14:26:32;1.63;;;0.80;;
84877;SDS011;75140;47.754;8.840;2024-03-22T14:28:58;0.93;;;0.77;;
84877;SDS011;75140;47.754;8.840;2024-03-22T14:31:23;2.97;;;0.90;;
84877;SDS011;75140;47.754;8.840;2024-03-22T14:33:48;0.70;;;0.57;;
84877;SDS011;75140;47.754;8.840;2024-03-22T14:36:13;2.67;;;0.63;;
84877;SDS011;75140;47.754;8.840;2024-03-22T14:38:39;0.90;;;0.57;;
84877;SDS011;75140;47.754;8.840;2024-03-22T14:41:04;2.53;;;0.80;;